Archiv-/Tagesdaten

--Timestamp---	Temp	Chill	HIndex	Humid	Dewpt	 Wind 	HiWind	WindDir	Rain 	Barom	Solar	 ET  	 UV 
--------------	----	-----	------	-----	-----	------	------	-------	-----	-----	-----	-----	----
20101026 00:00	1.7	1.7	1.7	91	0.4	0	0	-100000	0.0	1025.3	0	0.000	0.0
20101026 00:05	1.6	1.6	1.6	91	0.3	0	0	-100000	0.0	1025.2	0	0.000	0.0
20101026 00:10	1.6	1.6	1.6	91	0.3	0	0	-100000	0.0	1025.1	0	0.000	0.0
20101026 00:15	1.6	1.6	1.6	91	0.3	0	3	0	0.0	1025.3	0	0.000	0.0
20101026 00:20	1.6	1.6	1.6	91	0.2	0	0	-100000	0.0	1025.1	0	0.000	0.0
20101026 00:25	1.6	1.6	1.6	91	0.2	0	0	-100000	0.0	1025.1	0	0.000	0.0
20101026 00:30	1.5	1.5	1.5	91	0.2	0	2	0	0.0	1025.2	0	0.000	0.0
20101026 00:35	1.5	1.5	1.5	91	0.2	0	0	-100000	0.0	1025.2	0	0.000	0.0
20101026 00:40	1.5	1.5	1.5	91	0.2	0	0	-100000	0.0	1025.2	0	0.000	0.0
20101026 00:45	1.5	1.5	1.5	91	0.2	0	0	-100000	0.0	1025.3	0	0.000	0.0
20101026 00:50	1.4	1.4	1.4	91	0.1	0	2	0	0.0	1025.3	0	0.000	0.0
20101026 00:55	1.4	1.4	1.4	91	0.1	0	2	0	0.0	1025.5	0	0.000	0.0
20101026 01:00	1.4	1.4	1.4	91	0.1	0	0	-100000	0.0	1025.5	0	0.000	0.0
20101026 01:05	1.4	1.4	1.4	91	0.1	0	0	-100000	0.0	1025.5	0	0.000	0.0
20101026 01:10	1.3	1.3	1.3	91	0.0	0	0	-100000	0.0	1025.5	0	0.000	0.0
20101026 01:15	1.3	1.3	1.3	91	0.0	0	0	-100000	0.0	1025.6	0	0.000	0.0
20101026 01:20	1.3	1.3	1.3	91	0.0	0	0	-100000	0.0	1025.5	0	0.000	0.0
20101026 01:25	1.4	1.4	1.4	91	0.1	0	0	-100000	0.0	1025.6	0	0.000	0.0
20101026 01:30	1.4	1.4	1.4	92	0.3	0	0	-100000	0.0	1025.6	0	0.000	0.0
20101026 01:35	1.5	1.5	1.5	92	0.3	0	0	-100000	0.0	1025.6	0	0.000	0.0
20101026 01:40	1.4	1.4	1.4	91	0.1	0	0	-100000	0.0	1025.6	0	0.000	0.0
20101026 01:45	1.4	1.4	1.4	91	0.1	0	0	-100000	0.0	1025.7	0	0.000	0.0
20101026 01:50	1.3	1.3	1.3	92	0.2	0	0	-100000	0.0	1025.6	0	0.000	0.0
20101026 01:55	1.3	1.3	1.3	91	0.0	0	0	-100000	0.0	1025.7	0	0.000	0.0
20101026 02:00	1.3	1.3	1.3	92	0.2	0	2	0	0.0	1025.7	0	0.000	0.0
20101026 02:05	1.3	1.3	1.3	92	0.2	0	0	-100000	0.0	1025.7	0	0.000	0.0
20101026 02:10	1.3	1.3	1.3	92	0.1	0	2	0	0.0	1025.8	0	0.000	0.0
20101026 02:15	1.2	1.2	1.2	91	-0.1	0	0	-100000	0.0	1025.8	0	0.000	0.0
20101026 02:20	1.1	1.1	1.1	91	-0.2	0	3	0	0.0	1025.7	0	0.000	0.0
20101026 02:25	1.0	1.0	1.0	91	-0.3	2	5	0	0.0	1025.7	0	0.000	0.0
20101026 02:30	0.9	0.9	0.9	91	-0.4	2	5	0	0.0	1025.7	0	0.000	0.0
20101026 02:35	0.9	0.9	0.9	92	-0.3	3	5	0	0.0	1025.6	0	0.000	0.0
20101026 02:40	0.9	0.9	0.9	92	-0.3	2	5	0	0.0	1025.7	0	0.000	0.0
20101026 02:45	0.9	0.9	0.9	92	-0.2	0	5	0	0.0	1025.7	0	0.000	0.0
20101026 02:50	0.9	0.9	0.9	92	-0.2	0	2	0	0.0	1025.8	0	0.000	0.0
20101026 02:55	0.9	0.9	0.9	92	-0.2	0	0	-100000	0.0	1025.8	0	0.000	0.0
20101026 03:00	0.9	0.9	0.9	92	-0.3	0	0	-100000	0.0	1025.8	0	0.000	0.0
20101026 03:05	0.8	0.8	0.8	92	-0.3	0	0	-100000	0.0	1025.9	0	0.000	0.0
20101026 03:10	0.8	0.8	0.8	92	-0.4	0	0	-100000	0.0	1026.1	0	0.000	0.0
20101026 03:15	0.7	0.7	0.7	92	-0.5	0	0	-100000	0.0	1026.2	0	0.000	0.0
20101026 03:20	0.7	0.7	0.7	92	-0.5	0	0	-100000	0.0	1026.2	0	0.000	0.0
20101026 03:25	0.6	0.6	0.6	92	-0.6	0	0	-100000	0.0	1026.2	0	0.000	0.0
20101026 03:30	0.5	0.5	0.5	92	-0.6	0	0	-100000	0.0	1026.2	0	0.000	0.0
20101026 03:35	0.4	0.4	0.4	92	-0.7	0	2	0	0.0	1026.1	0	0.000	0.0
20101026 03:40	0.3	0.3	0.3	92	-0.8	0	0	-100000	0.0	1026.2	0	0.000	0.0
20101026 03:45	0.2	0.2	0.2	92	-0.9	0	2	0	0.0	1026.2	0	0.000	0.0
20101026 03:50	0.2	0.2	0.2	92	-1.0	2	3	0	0.0	1026.2	0	0.000	0.0
20101026 03:55	0.1	0.1	0.1	92	-1.0	0	2	0	0.0	1026.2	0	0.000	0.0
20101026 04:00	0.1	0.1	0.1	92	-1.1	0	2	0	0.0	1026.2	0	0.000	0.0
20101026 04:05	0.1	0.1	0.1	92	-1.1	0	2	0	0.0	1026.2	0	0.000	0.0
20101026 04:10	0.0	0.0	0.0	92	-1.1	0	0	-100000	0.0	1026.2	0	0.000	0.0
20101026 04:15	-0.1	-0.1	-0.1	92	-1.2	0	0	-100000	0.0	1026.2	0	0.000	0.0
20101026 04:20	-0.1	-0.1	-0.1	92	-1.3	2	3	0	0.0	1026.2	0	0.000	0.0
20101026 04:25	-0.2	-0.2	-0.2	92	-1.3	0	3	0	0.0	1026.2	0	0.000	0.0
20101026 04:30	-0.2	-0.2	-0.2	92	-1.4	2	3	0	0.0	1026.1	0	0.000	0.0
20101026 04:35	-0.3	-0.3	-0.3	92	-1.4	3	3	0	0.0	1026.1	0	0.000	0.0
20101026 04:40	-0.3	-0.3	-0.3	92	-1.4	3	3	0	0.0	1026.2	0	0.000	0.0
20101026 04:45	-0.3	-0.3	-0.3	92	-1.4	2	3	0	0.0	1026.1	0	0.000	0.0
20101026 04:50	-0.3	-0.3	-0.3	92	-1.4	0	2	0	0.0	1026.2	0	0.000	0.0
20101026 04:55	-0.3	-0.3	-0.3	92	-1.5	0	0	-100000	0.0	1026.3	0	0.000	0.0
20101026 05:00	-0.4	-0.4	-0.4	92	-1.6	0	0	-100000	0.0	1026.2	0	0.000	0.0
20101026 05:05	-0.6	-0.6	-0.6	92	-1.7	0	0	-100000	0.0	1026.4	0	0.000	0.0
20101026 05:10	-0.7	-0.7	-0.7	92	-1.9	0	0	-100000	0.0	1026.5	0	0.000	0.0
20101026 05:15	-0.8	-0.8	-0.8	92	-2.0	0	0	-100000	0.0	1026.6	0	0.000	0.0
20101026 05:20	-0.9	-0.9	-0.9	92	-2.0	0	0	-100000	0.0	1026.6	0	0.000	0.0
20101026 05:25	-0.9	-0.9	-0.9	92	-2.0	0	0	-100000	0.0	1026.8	0	0.000	0.0
20101026 05:30	-1.0	-1.0	-1.0	92	-2.1	0	0	-100000	0.0	1026.9	0	0.000	0.0
20101026 05:35	-1.1	-1.1	-1.1	92	-2.2	0	0	-100000	0.0	1026.9	0	0.000	0.0
20101026 05:40	-1.2	-1.2	-1.2	92	-2.3	0	0	-100000	0.0	1027.0	0	0.000	0.0
20101026 05:45	-1.1	-1.1	-1.1	92	-2.2	0	2	0	0.0	1027.1	0	0.000	0.0
20101026 05:50	-0.9	-0.9	-0.9	92	-2.1	0	0	-100000	0.0	1027.3	0	0.000	0.0
20101026 05:55	-0.8	-0.8	-0.8	93	-1.8	0	3	0	0.0	1027.3	0	0.000	0.0
20101026 06:00	-0.7	-0.7	-0.7	93	-1.7	3	6	0	0.0	1027.3	0	0.000	0.0
20101026 06:05	-0.6	-0.6	-0.6	93	-1.6	3	6	248	0.0	1027.4	0	0.000	0.0
20101026 06:10	-0.6	-0.6	-0.6	93	-1.5	5	6	248	0.0	1027.4	0	0.000	0.0
20101026 06:15	-0.6	-0.6	-0.6	93	-1.5	3	6	248	0.0	1027.4	0	0.000	0.0
20101026 06:20	-0.6	-0.6	-0.6	93	-1.6	3	6	248	0.0	1027.5	0	0.000	0.0
20101026 06:25	-0.7	-0.7	-0.7	93	-1.7	3	6	248	0.0	1027.5	0	0.000	0.0
20101026 06:30	-0.7	-0.7	-0.7	93	-1.7	3	5	248	0.0	1027.6	0	0.000	0.0
20101026 06:35	-0.7	-0.7	-0.7	93	-1.7	3	6	248	0.0	1027.5	0	0.000	0.0
20101026 06:40	-0.7	-0.7	-0.7	93	-1.7	5	6	248	0.0	1027.5	0	0.000	0.0
20101026 06:45	-0.7	-0.7	-0.7	93	-1.7	3	5	248	0.0	1027.5	0	0.000	0.0
20101026 06:50	-0.7	-0.7	-0.7	93	-1.7	3	5	248	0.0	1027.4	0	0.000	0.0
20101026 06:55	-0.8	-0.8	-0.8	93	-1.8	3	5	248	0.0	1027.4	0	0.000	0.0
20101026 07:00	-0.8	-0.8	-0.8	93	-1.8	2	5	248	0.0	1027.3	0	0.000	0.0
20101026 07:05	-0.9	-0.9	-0.9	93	-1.9	0	3	248	0.0	1027.3	0	0.000	0.0
20101026 07:10	-0.9	-0.9	-0.9	93	-1.9	0	2	248	0.0	1027.4	0	0.000	0.0
20101026 07:15	-0.9	-0.9	-0.9	93	-1.9	2	5	248	0.0	1027.4	0	0.000	0.0
20101026 07:20	-0.9	-0.9	-0.9	93	-1.9	2	5	248	0.0	1027.4	0	0.000	0.0
20101026 07:25	-0.9	-0.9	-0.9	93	-1.9	0	2	248	0.0	1027.4	0	0.000	0.0
20101026 07:30	-1.0	-1.0	-1.0	93	-2.0	0	0	-100000	0.0	1027.6	0	0.000	0.0
20101026 07:35	-1.1	-1.1	-1.1	93	-2.1	0	0	-100000	0.0	1027.7	0	0.000	0.0
20101026 07:40	-1.2	-1.2	-1.2	93	-2.2	0	2	248	0.0	1027.8	0	0.000	0.0
20101026 07:45	-1.3	-1.3	-1.3	93	-2.3	0	0	-100000	0.0	1027.8	0	0.000	0.0
20101026 07:50	-1.3	-1.3	-1.3	93	-2.3	0	3	248	0.0	1027.8	0	0.000	0.0
20101026 07:55	-1.2	-1.2	-1.2	93	-2.2	0	3	248	0.0	1027.8	0	0.000	0.0
20101026 08:00	-1.1	-1.1	-1.1	93	-2.0	0	3	248	0.0	1028.0	2	0.000	0.0
20101026 08:05	-1.1	-1.1	-1.1	93	-2.0	2	3	248	0.0	1028.1	5	0.000	0.0
20101026 08:10	-1.1	-1.1	-1.1	93	-2.0	2	5	248	0.0	1028.1	7	0.000	0.0
20101026 08:15	-1.1	-1.1	-1.1	93	-2.0	2	3	248	0.0	1028.1	10	0.000	0.0
20101026 08:20	-1.1	-1.1	-1.1	93	-2.1	2	5	248	0.0	1028.2	15	0.000	0.0
20101026 08:25	-1.1	-1.1	-1.1	93	-2.1	0	2	248	0.0	1028.3	18	0.000	0.0
20101026 08:30	-1.1	-1.1	-1.1	93	-2.0	0	5	248	0.0	1028.3	19	0.000	0.0
20101026 08:35	-0.9	-0.9	-0.9	93	-1.9	3	5	248	0.0	1028.4	20	0.000	0.0
20101026 08:40	-0.9	-0.9	-0.9	93	-1.9	3	5	248	0.0	1028.5	22	0.000	0.0
20101026 08:45	-0.8	-0.8	-0.8	93	-1.8	2	3	248	0.0	1028.5	24	0.000	0.0
20101026 08:50	-0.7	-0.7	-0.7	93	-1.7	0	2	248	0.0	1028.6	26	0.000	0.0
20101026 08:55	-0.7	-0.7	-0.7	93	-1.7	0	3	248	0.0	1028.8	26	0.000	0.0
20101026 09:00	-0.6	-0.6	-0.6	93	-1.6	0	0	-100000	0.0	1028.8	28	0.000	0.0
20101026 09:05	-0.5	-0.5	-0.5	93	-1.5	0	2	248	0.0	1029.0	29	0.000	0.0
20101026 09:10	-0.4	-0.4	-0.4	93	-1.4	0	0	-100000	0.0	1029.1	32	0.000	0.0
20101026 09:15	-0.3	-0.3	-0.3	93	-1.3	0	3	248	0.0	1029.0	34	0.000	0.0
20101026 09:20	-0.2	-0.2	-0.2	93	-1.2	0	3	248	0.0	1029.1	37	0.000	0.0
20101026 09:25	-0.1	-0.1	-0.1	93	-1.0	2	5	292	0.0	1029.0	40	0.000	0.0
20101026 09:30	0.1	0.1	0.1	93	-0.9	2	5	292	0.0	1029.1	39	0.000	0.0
20101026 09:35	0.2	0.2	0.2	93	-0.8	3	5	292	0.0	1029.1	39	0.000	0.0
20101026 09:40	0.3	0.3	0.3	93	-0.7	2	5	292	0.0	1029.2	39	0.000	0.0
20101026 09:45	0.4	0.4	0.4	93	-0.6	2	3	292	0.0	1029.4	39	0.000	0.0
20101026 09:50	0.6	0.6	0.6	94	-0.3	2	5	292	0.0	1029.3	39	0.000	0.0
20101026 09:55	0.7	0.7	0.7	93	-0.3	3	6	292	0.0	1029.5	39	0.000	0.0
20101026 10:00	0.8	0.8	0.8	93	-0.2	5	6	292	0.0	1029.4	40	0.025	0.0
20101026 10:05	0.8	0.8	0.8	93	-0.2	3	6	292	0.0	1029.4	41	0.000	0.0
20101026 10:10	0.9	0.9	0.9	93	-0.1	5	6	292	0.0	1029.4	43	0.000	0.0
20101026 10:15	1.1	1.1	1.1	93	0.1	3	5	292	0.0	1029.4	42	0.000	0.0
20101026 10:20	1.2	1.2	1.2	93	0.2	3	6	292	0.0	1029.5	43	0.000	0.0
20101026 10:25	1.3	1.3	1.3	93	0.3	3	5	292	0.0	1029.4	43	0.000	0.0
20101026 10:30	1.4	1.4	1.4	93	0.4	3	5	292	0.0	1029.4	42	0.000	0.0
20101026 10:35	1.7	1.7	1.7	93	0.7	3	6	292	0.0	1029.4	44	0.000	0.0
20101026 10:40	1.8	1.8	1.8	93	0.8	3	8	248	0.0	1029.3	44	0.000	0.0
20101026 10:45	2.0	2.0	2.0	93	1.0	5	8	292	0.2	1029.3	44	0.000	0.0
20101026 10:50	2.2	2.2	2.2	92	1.0	3	8	315	0.0	1029.3	46	0.000	0.0
20101026 10:55	2.3	2.3	2.3	92	1.1	5	6	292	0.0	1029.2	47	0.000	0.0
20101026 11:00	2.4	2.4	2.4	92	1.3	3	8	292	0.0	1029.2	46	0.025	0.0
20101026 11:05	2.6	2.6	2.6	91	1.2	5	10	270	0.0	1029.1	49	0.000	0.0
20101026 11:10	2.7	2.7	2.7	90	1.2	5	8	292	0.0	1029.2	52	0.000	0.0
20101026 11:15	2.8	2.8	2.8	90	1.4	5	8	270	0.0	1029.1	53	0.000	0.0
20101026 11:20	3.0	3.0	3.0	89	1.4	5	10	270	0.0	1029.1	56	0.000	0.5
20101026 11:25	3.2	3.2	3.2	89	1.6	5	10	270	0.0	1029.2	53	0.000	0.2
20101026 11:30	3.3	3.3	3.3	88	1.5	3	8	292	0.0	1029.3	70	0.000	0.8
20101026 11:35	3.6	3.6	3.6	88	1.8	5	10	270	0.0	1029.3	369	0.000	1.1
20101026 11:40	3.8	3.8	3.8	92	2.7	5	8	292	0.0	1029.3	390	0.000	1.3
20101026 11:45	4.1	2.6	4.1	83	1.5	6	10	292	0.0	1029.3	401	0.000	1.4
20101026 11:50	4.4	2.9	4.4	83	1.8	6	10	315	0.0	1029.2	439	0.000	1.5
20101026 11:55	4.6	3.1	4.6	82	1.8	6	11	315	0.0	1029.3	313	0.000	1.3
20101026 12:00	4.7	4.7	4.7	81	1.7	2	8	292	0.0	1029.3	182	0.076	1.3
20101026 12:05	4.8	4.8	4.8	81	1.8	3	8	292	0.0	1029.3	434	0.000	1.4
20101026 12:10	4.8	4.8	4.8	80	1.6	3	8	292	0.0	1029.1	167	0.000	1.2
20101026 12:15	4.8	4.8	4.8	79	1.4	5	11	292	0.0	1029.1	163	0.000	1.1
20101026 12:20	4.7	4.7	4.7	79	1.3	5	14	315	0.0	1029.1	120	0.000	1.1
20101026 12:25	4.6	4.6	4.6	79	1.3	2	6	315	0.0	1029.4	125	0.000	1.2
20101026 12:30	4.6	4.6	4.6	80	1.5	2	5	338	0.0	1029.4	153	0.000	1.3
20101026 12:35	4.6	4.6	4.6	82	1.8	3	5	338	0.0	1029.4	200	0.000	1.3
20101026 12:40	4.7	4.7	4.7	81	1.7	5	11	338	0.0	1029.4	109	0.000	1.3
20101026 12:45	4.7	3.2	4.7	79	1.3	6	10	315	0.0	1029.4	127	0.000	1.3
20101026 12:50	4.6	4.6	4.6	79	1.3	5	8	292	0.0	1029.4	130	0.000	1.4
20101026 12:55	4.7	3.3	4.7	79	1.4	6	11	315	0.0	1029.4	496	0.000	1.8
20101026 13:00	5.1	3.7	5.1	79	1.7	6	10	292	0.0	1029.3	488	0.102	1.8
20101026 13:05	5.2	5.2	5.2	77	1.5	5	10	292	0.0	1029.4	497	0.000	1.9
20101026 13:10	5.4	5.4	5.4	76	1.6	3	8	270	0.0	1029.2	522	0.000	1.9
20101026 13:15	5.8	5.8	5.8	75	1.7	5	11	315	0.0	1029.2	546	0.000	1.9
20101026 13:20	6.2	4.9	6.2	70	1.1	6	13	292	0.0	1029.2	512	0.000	1.8
20101026 13:25	6.3	5.1	6.3	70	1.2	6	14	292	0.0	1029.2	477	0.000	1.8
20101026 13:30	6.5	6.5	6.5	67	0.8	3	10	315	0.0	1029.1	553	0.000	1.8
20101026 13:35	6.7	6.7	6.7	65	0.6	3	8	248	0.0	1029.2	633	0.000	1.7
20101026 13:40	6.7	6.7	6.7	65	0.6	3	11	248	0.0	1029.1	276	0.000	1.3
20101026 13:45	6.8	6.8	6.8	65	0.7	5	8	248	0.0	1029.1	319	0.000	1.3
20101026 13:50	6.7	5.5	6.7	65	0.6	6	11	338	0.0	1029.1	234	0.000	1.1
20101026 13:55	6.6	6.6	6.6	66	0.7	5	10	315	0.0	1029.0	203	0.000	1.0
20101026 14:00	6.3	6.3	6.3	64	0.0	3	8	315	0.0	1029.0	157	0.178	0.9
20101026 14:05	6.2	6.2	6.2	67	0.5	5	8	315	0.0	1029.1	131	0.000	1.0
20101026 14:10	6.0	6.0	6.0	69	0.7	2	5	315	0.0	1029.1	119	0.000	1.1
20101026 14:15	5.8	5.8	5.8	69	0.6	2	5	315	0.0	1029.1	102	0.000	1.1
20101026 14:20	5.8	5.8	5.8	69	0.5	3	8	315	0.0	1029.1	381	0.000	1.4
20101026 14:25	6.2	6.2	6.2	67	0.5	3	6	315	0.0	1029.0	483	0.000	1.5
20101026 14:30	6.5	6.5	6.5	61	-0.5	5	10	292	0.0	1028.9	525	0.000	1.4
20101026 14:35	6.8	6.8	6.8	63	0.3	3	8	292	0.0	1028.8	545	0.000	1.4
20101026 14:40	7.2	5.7	7.2	64	0.9	8	16	270	0.0	1028.8	549	0.000	1.3
20101026 14:45	7.3	6.3	7.3	60	0.1	6	16	270	0.0	1028.8	546	0.000	1.3
20101026 14:50	7.5	5.7	7.5	60	0.2	10	18	315	0.0	1028.7	542	0.000	1.2
20101026 14:55	7.7	7.7	7.7	60	0.4	5	11	315	0.0	1028.7	538	0.000	1.2
20101026 15:00	7.9	7.0	7.9	61	0.9	6	10	248	0.0	1028.7	498	0.178	1.2
20101026 15:05	7.9	7.9	7.9	58	0.1	5	11	315	0.0	1028.8	440	0.000	1.2
20101026 15:10	7.8	7.8	7.8	58	0.1	5	10	315	0.0	1028.7	423	0.000	1.1
20101026 15:15	7.8	7.8	7.8	59	0.3	3	10	315	0.0	1028.8	418	0.000	1.0
20101026 15:20	7.8	7.8	7.8	58	0.0	3	8	315	0.0	1028.7	414	0.000	1.0
20101026 15:25	7.7	7.7	7.7	56	-0.6	3	6	315	0.0	1028.7	370	0.000	0.9
20101026 15:30	7.6	7.6	7.6	58	-0.2	3	6	292	0.0	1028.8	332	0.000	0.9
20101026 15:35	7.6	7.6	7.6	61	0.6	3	11	0	0.0	1028.8	319	0.000	0.8
20101026 15:40	7.4	7.4	7.4	59	-0.1	5	8	22	0.0	1028.8	313	0.000	0.8
20101026 15:45	7.2	7.2	7.2	61	0.2	3	6	315	0.0	1028.9	297	0.000	0.7
20101026 15:50	7.3	7.3	7.3	59	-0.2	5	10	315	0.0	1028.9	285	0.000	0.7
20101026 15:55	7.3	7.3	7.3	60	0.0	3	8	315	0.0	1028.9	274	0.000	0.7
20101026 16:00	7.3	7.3	7.3	59	-0.1	2	6	338	0.0	1029.0	259	0.152	0.6
20101026 16:05	7.4	7.4	7.4	58	-0.3	5	10	338	0.0	1029.0	246	0.000	0.6
20101026 16:10	7.5	7.5	7.5	59	0.0	5	10	315	0.0	1029.0	233	0.000	0.5
20101026 16:15	7.3	6.3	7.3	59	-0.1	6	10	315	0.0	1029.0	225	0.000	0.5
20101026 16:20	7.3	7.3	7.3	61	0.3	3	8	315	0.0	1029.0	207	0.000	0.3
20101026 16:25	7.3	7.3	7.3	60	0.1	3	8	315	0.0	1029.0	193	0.000	0.0
20101026 16:30	7.3	7.3	7.3	59	-0.1	5	10	292	0.0	1029.0	181	0.000	0.0
20101026 16:35	7.3	6.3	7.3	59	-0.1	6	11	315	0.0	1029.0	164	0.000	0.0
20101026 16:40	7.4	7.4	7.4	58	-0.3	3	6	315	0.0	1028.9	149	0.000	0.0
20101026 16:45	7.5	7.5	7.5	58	-0.2	5	10	225	0.0	1028.8	137	0.000	0.0
20101026 16:50	7.5	7.5	7.5	57	-0.5	5	8	292	0.0	1028.8	123	0.000	0.0
20101026 16:55	7.5	7.5	7.5	58	-0.2	3	8	292	0.0	1028.7	110	0.000	0.0
20101026 17:00	7.4	7.4	7.4	57	-0.5	5	8	270	0.0	1028.7	100	0.102	0.0
20101026 17:05	7.3	7.3	7.3	58	-0.4	3	6	270	0.0	1028.9	103	0.000	0.0
20101026 17:10	7.2	7.2	7.2	58	-0.5	3	6	270	0.0	1028.9	104	0.000	0.0
20101026 17:15	7.1	7.1	7.1	58	-0.6	3	8	270	0.0	1028.9	55	0.000	0.0
20101026 17:20	6.9	6.9	6.9	58	-0.8	2	6	270	0.0	1028.9	35	0.000	0.0
20101026 17:25	6.7	6.7	6.7	58	-1.0	2	5	270	0.0	1029.0	27	0.000	0.0
20101026 17:30	6.4	6.4	6.4	58	-1.2	2	6	270	0.0	1029.1	21	0.000	0.0
20101026 17:35	6.3	6.3	6.3	59	-1.1	0	5	270	0.0	1029.1	16	0.000	0.0
20101026 17:40	6.3	6.3	6.3	61	-0.7	0	5	270	0.0	1029.1	17	0.000	0.0
20101026 17:45	6.2	6.2	6.2	61	-0.8	2	5	270	0.0	1029.1	15	0.000	0.0
20101026 17:50	6.1	6.1	6.1	62	-0.6	3	8	270	0.0	1029.2	17	0.000	0.0
20101026 17:55	6.1	6.1	6.1	63	-0.5	5	6	270	0.0	1029.1	14	0.000	0.0
20101026 18:00	5.9	5.9	5.9	65	-0.1	3	6	270	0.0	1029.1	6	0.025	0.0
20101026 18:05	5.8	5.8	5.8	66	-0.0	3	6	270	0.0	1029.1	0	0.000	0.0
20101026 18:10	5.8	5.8	5.8	66	-0.1	2	5	270	0.0	1029.3	0	0.000	0.0
20101026 18:15	5.7	5.7	5.7	66	-0.2	2	5	270	0.0	1029.4	0	0.000	0.0
20101026 18:20	5.6	5.6	5.6	67	-0.1	2	5	270	0.0	1029.3	0	0.000	0.0
20101026 18:25	5.5	5.5	5.5	67	-0.1	2	5	270	0.0	1029.4	0	0.000	0.0
20101026 18:30	5.5	5.5	5.5	68	0.1	2	5	270	0.0	1029.4	0	0.000	0.0
20101026 18:35	5.4	5.4	5.4	69	0.2	2	3	270	0.0	1029.5	0	0.000	0.0
20101026 18:40	5.4	5.4	5.4	69	0.2	0	2	270	0.0	1029.5	0	0.000	0.0
20101026 18:45	5.4	5.4	5.4	70	0.4	2	3	270	0.0	1029.5	0	0.000	0.0
20101026 18:50	5.3	5.3	5.3	70	0.3	0	2	270	0.0	1029.6	0	0.000	0.0
20101026 18:55	5.3	5.3	5.3	70	0.3	2	3	270	0.0	1029.5	0	0.000	0.0
20101026 19:00	5.3	5.3	5.3	70	0.3	0	3	270	0.0	1029.5	0	0.000	0.0
20101026 19:05	5.3	5.3	5.3	70	0.3	0	2	270	0.0	1029.6	0	0.000	0.0
20101026 19:10	5.3	5.3	5.3	71	0.4	0	2	270	0.0	1029.7	0	0.000	0.0
20101026 19:15	5.2	5.2	5.2	71	0.4	0	0	-100000	0.0	1029.8	0	0.000	0.0
20101026 19:20	5.2	5.2	5.2	71	0.3	0	0	-100000	0.0	1029.8	0	0.000	0.0
20101026 19:25	5.1	5.1	5.1	71	0.3	0	2	270	0.0	1029.9	0	0.000	0.0
20101026 19:30	5.1	5.1	5.1	71	0.2	0	3	270	0.0	1030.0	0	0.000	0.0
20101026 19:35	5.1	5.1	5.1	72	0.4	0	0	-100000	0.0	1030.0	0	0.000	0.0
20101026 19:40	5.0	5.0	5.0	73	0.6	0	2	270	0.0	1029.9	0	0.000	0.0
20101026 19:45	5.0	5.0	5.0	73	0.6	0	2	270	0.0	1030.0	0	0.000	0.0
20101026 19:50	4.9	4.9	4.9	73	0.5	0	2	270	0.0	1030.0	0	0.000	0.0
20101026 19:55	5.0	5.0	5.0	71	0.2	0	3	270	0.0	1030.1	0	0.000	0.0
20101026 20:00	5.0	5.0	5.0	71	0.2	0	2	270	0.0	1030.1	0	0.025	0.0
20101026 20:05	5.0	5.0	5.0	71	0.2	0	0	-100000	0.0	1029.9	0	0.000	0.0
20101026 20:10	5.1	5.1	5.1	73	0.6	0	2	270	0.0	1030.0	0	0.000	0.0
20101026 20:15	5.0	5.0	5.0	73	0.6	0	0	-100000	0.0	1030.0	0	0.000	0.0
20101026 20:20	5.0	5.0	5.0	73	0.6	0	0	-100000	0.0	1030.0	0	0.000	0.0
20101026 20:25	4.9	4.9	4.9	74	0.7	0	0	-100000	0.0	1030.0	0	0.000	0.0
20101026 20:30	4.9	4.9	4.9	74	0.7	0	0	-100000	0.0	1030.0	0	0.000	0.0
20101026 20:35	4.9	4.9	4.9	75	0.8	0	0	-100000	0.0	1030.0	0	0.000	0.0
20101026 20:40	4.8	4.8	4.8	76	1.0	0	0	-100000	0.0	1030.1	0	0.000	0.0
20101026 20:45	4.8	4.8	4.8	77	1.1	0	0	-100000	0.0	1030.0	0	0.000	0.0
20101026 20:50	4.8	4.8	4.8	76	0.9	0	3	270	0.0	1030.0	0	0.000	0.0
20101026 20:55	4.7	4.7	4.7	76	0.9	0	2	270	0.0	1030.0	0	0.000	0.0
20101026 21:00	4.7	4.7	4.7	76	0.9	0	2	270	0.0	1030.0	0	0.025	0.0
20101026 21:05	4.7	4.7	4.7	76	0.8	0	2	270	0.0	1030.0	0	0.000	0.0
20101026 21:10	4.6	4.6	4.6	76	0.7	0	0	-100000	0.0	1030.0	0	0.000	0.0
20101026 21:15	4.5	4.5	4.5	77	0.8	0	2	270	0.0	1030.1	0	0.000	0.0
20101026 21:20	4.4	4.4	4.4	78	0.9	0	0	-100000	0.0	1030.1	0	0.000	0.0
20101026 21:25	4.3	4.3	4.3	78	0.8	0	0	-100000	0.0	1030.2	0	0.000	0.0
20101026 21:30	4.3	4.3	4.3	79	1.0	0	3	270	0.0	1030.1	0	0.000	0.0
20101026 21:35	4.2	4.2	4.2	79	0.9	2	5	270	0.0	1030.2	0	0.000	0.0
20101026 21:40	4.1	4.1	4.1	80	0.9	3	5	270	0.0	1030.1	0	0.000	0.0
20101026 21:45	3.9	3.9	3.9	80	0.8	0	3	270	0.0	1030.1	0	0.000	0.0
20101026 21:50	3.8	3.8	3.8	80	0.6	2	5	270	0.0	1030.1	0	0.000	0.0
20101026 21:55	3.7	3.7	3.7	81	0.7	3	6	270	0.0	1030.0	0	0.000	0.0
20101026 22:00	3.6	3.6	3.6	81	0.6	2	5	270	0.0	1030.0	0	0.025	0.0
20101026 22:05	3.5	3.5	3.5	81	0.6	0	0	-100000	0.0	1030.0	0	0.000	0.0
20101026 22:10	3.4	3.4	3.4	82	0.7	0	3	270	0.0	1029.9	0	0.000	0.0
20101026 22:15	3.4	3.4	3.4	82	0.6	0	3	270	0.0	1030.0	0	0.000	0.0
20101026 22:20	3.3	3.3	3.3	82	0.6	0	2	270	0.0	1030.0	0	0.000	0.0
20101026 22:25	3.3	3.3	3.3	83	0.7	0	0	-100000	0.0	1029.9	0	0.000	0.0
20101026 22:30	3.3	3.3	3.3	83	0.7	0	3	270	0.0	1029.9	0	0.000	0.0
20101026 22:35	3.2	3.2	3.2	83	0.6	0	3	270	0.0	1029.8	0	0.000	0.0
20101026 22:40	3.2	3.2	3.2	83	0.6	0	3	270	0.0	1029.8	0	0.000	0.0
20101026 22:45	3.1	3.1	3.1	83	0.5	0	3	270	0.0	1029.8	0	0.000	0.0
20101026 22:50	3.1	3.1	3.1	83	0.5	2	5	270	0.0	1029.8	0	0.000	0.0
20101026 22:55	3.1	3.1	3.1	83	0.5	2	5	270	0.0	1029.8	0	0.000	0.0
20101026 23:00	3.0	3.0	3.0	84	0.6	2	3	270	0.0	1029.8	0	0.000	0.0
20101026 23:05	2.9	2.9	2.9	84	0.5	3	8	270	0.0	1029.6	0	0.000	0.0
20101026 23:10	2.8	2.8	2.8	84	0.4	5	10	202	0.0	1029.6	0	0.000	0.0
20101026 23:15	2.7	2.7	2.7	84	0.3	3	6	202	0.0	1029.6	0	0.000	0.0
20101026 23:20	2.6	2.6	2.6	85	0.3	3	8	202	0.0	1029.5	0	0.000	0.0
20101026 23:25	2.4	2.4	2.4	85	0.2	5	6	202	0.0	1029.5	0	0.000	0.0
20101026 23:30	2.3	2.3	2.3	86	0.2	5	6	202	0.0	1029.5	0	0.000	0.0
20101026 23:35	2.2	2.2	2.2	86	0.1	3	8	202	0.0	1029.5	0	0.000	0.0
20101026 23:40	2.1	2.1	2.1	86	-0.0	3	6	202	0.0	1029.4	0	0.000	0.0
20101026 23:45	2.0	2.0	2.0	86	-0.1	3	5	202	0.0	1029.4	0	0.000	0.0
20101026 23:50	1.9	1.9	1.9	87	0.0	2	6	202	0.0	1029.4	0	0.000	0.0
20101026 23:55	1.9	1.9	1.9	87	-0.0	3	6	202	0.0	1029.4	0	0.000	0.0



Please note the license to use and transfer of this data:
http://creativecommons.org/licenses/by-nc-sa/3.0/deed.en

Bitte beachten sie die Lizenz zur Verwertung und Weitergabe der Daten:
http://creativecommons.org/licenses/by-nc-sa/3.0/deed.de

zurück zur Übersicht der Archivdaten (Monats und Tagesdaten)

Cookies helfen bei der Bereitstellung von Inhalten. Durch die Nutzung dieser Seiten erklärst du dich damit einverstanden, dass Cookies auf deinem Rechner gespeichert werden. Weitere Information